Ljuta — J8B4127 — position and weather

sailwx.info

Track history (hours):
 
Tides and Currents Weather Stations Pressure Air Temp Water Temp Dewpoint Dewpoint Depression Visibility Wind Speed Wind Dir Waves Ship Positions

Ljuta

Last reported at 2018-Apr-24 00:23 UTC. Time now 2018-Apr-24 00:43 UTC.
Position N 36°46' E 003°04'.

Length 177 m; draft 9.6 m.

Type: Cargo ship. MMSI: 377715000.

Date/timePositionNaut miles runAvg speedWind from/ knotsBaromVisibWave heightAir tempDewpointWater temp
2018-Apr-24 00:23N 36°46' E 003°04'0 0.0
2018-Apr-23 23:59N 36°46' E 003°04'0 0.0
2018-Apr-23 23:29N 36°46' E 003°04'0 0.0
2018-Apr-23 22:56N 36°46' E 003°04'0 0.0
2018-Apr-23 22:17N 36°46' E 003°04'0 0.0
2018-Apr-23 21:50N 36°46' E 003°04'0 0.0
2018-Apr-23 17:05N 36°46' E 003°04'0 0.1
2018-Apr-23 16:59N 36°46' E 003°04'0 0.0
2018-Apr-23 16:26N 36°46' E 003°04'0 0.0
2018-Apr-23 12:50N 36°46' E 003°04'0 0.0
2018-Apr-23 12:29N 36°46' E 003°04'  
2018-Apr-18 09:49N 35°59' W 005°13'411.8
2018-Apr-18 09:30N 35°58' W 005°18'612.8
2018-Apr-18 09:01N 35°58' W 005°25'17012.2
2018-Apr-17 19:05N 36°29' W 008°53'6911.4
2018-Apr-17 13:02N 37°24' W 009°46'112.9
2018-Apr-17 12:59N 37°25' W 009°46'612.7
2018-Apr-17 12:30N 37°31' W 009°48'712.7
2018-Apr-17 11:59N 37°37' W 009°49'612.6
2018-Apr-17 11:31N 37°43' W 009°50'612.4
2018-Apr-17 11:00N 37°49' W 009°52'612.3
2018-Apr-17 10:30N 37°55' W 009°53'612.3
2018-Apr-17 10:00N 38°01' W 009°55'612.3
2018-Apr-17 09:30N 38°08' W 009°56'612.3
2018-Apr-17 08:59N 38°14' W 009°58'1012.5
2018-Apr-17 08:14N 38°23' W 010°01'312.4
2018-Apr-17 08:00N 38°26' W 010°02'712.6
2018-Apr-17 07:26N 38°32' W 010°04'612.9
2018-Apr-17 06:58N 38°38' W 010°06'612.5
2018-Apr-17 06:30N 38°44' W 010°07'812.5
2018-Apr-17 05:51N 38°52' W 010°07'412.6
2018-Apr-17 05:30N 38°57' W 010°07'612.4
2018-Apr-17 05:00N 39°03' W 010°07'712.2
2018-Apr-17 04:28N 39°09' W 010°07'511.8
2018-Apr-17 04:00N 39°15' W 010°07'812.4
2018-Apr-17 03:19N 39°23' W 010°06'  
2018-Apr-14 09:07N 49°43' W 003°37'113.2
2018-Apr-14 09:00N 49°44' W 003°35'612.9
2018-Apr-14 08:30N 49°47' W 003°26'712.3
2018-Apr-14 07:58N 49°50' W 003°17'511.9
2018-Apr-14 07:30N 49°53' W 003°10'611.4
2018-Apr-14 07:00N 49°56' W 003°02'510.8
2018-Apr-14 06:30N 49°59' W 002°55'610.7
2018-Apr-14 05:55N 50°00' W 002°46'510.6
2018-Apr-14 05:27N 50°02' W 002°38'510.7
2018-Apr-14 04:59N 50°03' W 002°31'1311.4
2018-Apr-14 03:51N 50°04' W 002°10'412.6
2018-Apr-14 03:30N 50°04' W 002°04'713.0
2018-Apr-14 03:00N 50°02' W 001°54'714.2
2018-Apr-14 02:30N 49°59' W 001°44'714.9
2018-Apr-14 02:00N 49°56' W 001°34'815.7
2018-Apr-14 01:31N 49°52' W 001°23'816.3
2018-Apr-14 01:01N 49°49' W 001°11'815.9
2018-Apr-14 00:30N 49°45' W 001°00'  
Track history (hours):
 
Tides and Currents Weather Stations Pressure Air Temp Water Temp Dewpoint Dewpoint Depression Visibility Wind Speed Wind Dir Waves Ship Positions

Ljuta

Last reported at 2018-Apr-24 00:23 UTC. Time now 2018-Apr-24 00:43 UTC.
Position N 36°46' E 003°04'.

Length 177 m; draft 9.6 m.

Type: Cargo ship. MMSI: 377715000.

Date/timePositionNaut miles runAvg speedWind from/ knotsBaromVisibWave heightAir tempDewpointWater temp
2018-Apr-24 00:23N 36°46' E 003°04'0 0.0
2018-Apr-23 23:59N 36°46' E 003°04'0 0.0
2018-Apr-23 23:29N 36°46' E 003°04'0 0.0
2018-Apr-23 22:56N 36°46' E 003°04'0 0.0
2018-Apr-23 22:17N 36°46' E 003°04'0 0.0
2018-Apr-23 21:50N 36°46' E 003°04'0 0.0
2018-Apr-23 17:05N 36°46' E 003°04'0 0.1
2018-Apr-23 16:59N 36°46' E 003°04'0 0.0
2018-Apr-23 16:26N 36°46' E 003°04'0 0.0
2018-Apr-23 12:50N 36°46' E 003°04'0 0.0
2018-Apr-23 12:29N 36°46' E 003°04'  
2018-Apr-18 09:49N 35°59' W 005°13'411.8
2018-Apr-18 09:30N 35°58' W 005°18'612.8
2018-Apr-18 09:01N 35°58' W 005°25'17012.2
2018-Apr-17 19:05N 36°29' W 008°53'6911.4
2018-Apr-17 13:02N 37°24' W 009°46'112.9
2018-Apr-17 12:59N 37°25' W 009°46'612.7
2018-Apr-17 12:30N 37°31' W 009°48'712.7
2018-Apr-17 11:59N 37°37' W 009°49'612.6
2018-Apr-17 11:31N 37°43' W 009°50'612.4
2018-Apr-17 11:00N 37°49' W 009°52'612.3
2018-Apr-17 10:30N 37°55' W 009°53'612.3
2018-Apr-17 10:00N 38°01' W 009°55'612.3
2018-Apr-17 09:30N 38°08' W 009°56'612.3
2018-Apr-17 08:59N 38°14' W 009°58'1012.5
2018-Apr-17 08:14N 38°23' W 010°01'312.4
2018-Apr-17 08:00N 38°26' W 010°02'712.6
2018-Apr-17 07:26N 38°32' W 010°04'612.9
2018-Apr-17 06:58N 38°38' W 010°06'612.5
2018-Apr-17 06:30N 38°44' W 010°07'812.5
2018-Apr-17 05:51N 38°52' W 010°07'412.6
2018-Apr-17 05:30N 38°57' W 010°07'612.4
2018-Apr-17 05:00N 39°03' W 010°07'712.2
2018-Apr-17 04:28N 39°09' W 010°07'511.8
2018-Apr-17 04:00N 39°15' W 010°07'812.4
2018-Apr-17 03:19N 39°23' W 010°06'  
2018-Apr-14 09:07N 49°43' W 003°37'113.2
2018-Apr-14 09:00N 49°44' W 003°35'612.9
2018-Apr-14 08:30N 49°47' W 003°26'712.3
2018-Apr-14 07:58N 49°50' W 003°17'511.9
2018-Apr-14 07:30N 49°53' W 003°10'611.4
2018-Apr-14 07:00N 49°56' W 003°02'510.8
2018-Apr-14 06:30N 49°59' W 002°55'610.7
2018-Apr-14 05:55N 50°00' W 002°46'510.6
2018-Apr-14 05:27N 50°02' W 002°38'510.7
2018-Apr-14 04:59N 50°03' W 002°31'1311.4
2018-Apr-14 03:51N 50°04' W 002°10'412.6
2018-Apr-14 03:30N 50°04' W 002°04'713.0
2018-Apr-14 03:00N 50°02' W 001°54'714.2
2018-Apr-14 02:30N 49°59' W 001°44'714.9
2018-Apr-14 02:00N 49°56' W 001°34'815.7
2018-Apr-14 01:31N 49°52' W 001°23'816.3
2018-Apr-14 01:01N 49°49' W 001°11'815.9
2018-Apr-14 00:30N 49°45' W 001°00'  

Dump ship's entire track history